createdAt,value
2018-02-16T00:00:02.743Z,2.00
2018-02-16T00:02:03.792Z,2.00
2018-02-16T00:04:05.238Z,2.00
2018-02-16T00:06:06.266Z,1.90
2018-02-16T00:08:07.287Z,1.80
2018-02-16T00:10:08.267Z,1.80
2018-02-16T00:12:09.356Z,1.80
2018-02-16T00:14:10.379Z,1.80
2018-02-16T00:16:11.446Z,1.80
2018-02-16T00:18:12.469Z,1.90
2018-02-16T00:20:13.471Z,1.80
2018-02-16T00:22:14.539Z,1.80
2018-02-16T00:24:15.596Z,1.80
2018-02-16T00:31:12.245Z,1.50
2018-02-16T00:33:13.248Z,1.40
2018-02-16T00:35:32.268Z,1.30
2018-02-16T00:40:01.174Z,1.20
2018-02-16T00:42:02.407Z,1.20
2018-02-16T00:44:04.162Z,1.10
2018-02-16T00:46:05.876Z,1.00
2018-02-16T00:48:06.951Z,1.00
2018-02-16T00:50:32.228Z,1.00
2018-02-16T00:52:33.326Z,1.00
2018-02-16T00:57:01.752Z,1.00
2018-02-16T00:59:03.460Z,0.90
2018-02-16T01:01:04.443Z,0.90
2018-02-16T01:03:05.622Z,0.90
2018-02-16T01:05:06.655Z,0.90
2018-02-16T01:09:35.590Z,0.80
2018-02-16T01:11:36.551Z,0.90
2018-02-16T01:14:01.684Z,0.90
2018-02-16T01:16:02.780Z,0.80
2018-02-16T01:18:03.770Z,0.80
2018-02-16T01:20:04.803Z,0.80
2018-02-16T01:22:32.100Z,0.80
2018-02-16T01:24:33.134Z,0.80
2018-02-16T01:26:34.090Z,0.80
2018-02-16T01:31:15.468Z,0.60
2018-02-16T01:33:17.158Z,0.60
2018-02-16T01:35:18.115Z,0.60
2018-02-16T01:37:19.124Z,0.60
2018-02-16T01:39:42.636Z,0.60
2018-02-16T01:41:43.671Z,0.60
2018-02-16T01:46:13.103Z,0.60
2018-02-16T01:48:14.065Z,0.50
2018-02-16T01:50:23.483Z,0.50
2018-02-16T01:54:52.838Z,0.40
2018-02-16T01:56:53.855Z,0.40
2018-02-16T01:58:54.820Z,0.30
2018-02-16T02:00:55.867Z,0.30
2018-02-16T02:02:56.908Z,0.30
2018-02-16T02:04:58.675Z,0.30
2018-02-16T02:06:59.611Z,0.30
2018-02-16T02:09:00.638Z,0.20
2018-02-16T02:11:01.664Z,0.20
2018-02-16T02:13:02.652Z,0.20
2018-02-16T02:15:03.733Z,0.10
2018-02-16T02:19:32.112Z,0.10
2018-02-16T02:21:33.832Z,0.10
2018-02-16T02:23:34.900Z,0.10
2018-02-16T02:25:35.934Z,0.10
2018-02-16T02:28:02.387Z,0.10
2018-02-16T02:30:03.471Z,0.20
2018-02-16T02:32:04.487Z,0.20
2018-02-16T02:34:05.528Z,0.10
2018-02-16T02:36:06.526Z,0.20
2018-02-16T02:38:08.216Z,0.20
2018-02-16T02:40:09.229Z,0.20
2018-02-16T02:42:11.007Z,0.20
2018-02-16T02:44:11.975Z,0.20
2018-02-16T02:46:32.669Z,0.20
2018-02-16T02:48:33.728Z,0.20
2018-02-16T02:50:34.852Z,0.10
2018-02-16T02:52:36.595Z,0.00
2018-02-16T02:54:37.631Z,0.00
2018-02-16T02:56:38.821Z,0.00
2018-02-16T02:58:39.841Z,0.00
2018-02-16T03:00:40.778Z,0.00
2018-02-16T03:02:41.832Z,0.00
2018-02-16T03:05:01.696Z,0.00
2018-02-16T03:07:02.771Z,0.00
2018-02-16T03:09:03.728Z,0.00
2018-02-16T03:11:05.485Z,0.10
2018-02-16T03:13:31.666Z,0.10
2018-02-16T03:18:00.486Z,0.10
2018-02-16T03:20:01.439Z,0.10
2018-02-16T03:22:02.555Z,0.10
2018-02-16T03:24:03.616Z,0.00
2018-02-16T03:26:04.571Z,0.00
2018-02-16T03:28:05.556Z,0.00
2018-02-16T03:30:06.657Z,0.00
2018-02-16T03:32:31.728Z,0.00
2018-02-16T03:34:32.747Z,0.00
2018-02-16T03:36:33.756Z,0.10
2018-02-16T03:43:30.535Z,0.10
2018-02-16T03:45:31.644Z,0.10
2018-02-16T03:47:32.703Z,0.20
2018-02-16T03:49:33.718Z,0.20
2018-02-16T03:51:34.668Z,0.40
2018-02-16T03:53:56.171Z,0.40
2018-02-16T03:55:57.443Z,0.40
2018-02-16T03:58:02.012Z,0.50
2018-02-16T04:02:31.974Z,0.50
2018-02-16T04:04:32.931Z,0.60
2018-02-16T04:06:33.973Z,0.60
2018-02-16T04:08:34.978Z,0.60
2018-02-16T04:10:35.916Z,0.70
2018-02-16T04:12:36.926Z,0.70
2018-02-16T04:14:37.900Z,0.80
2018-02-16T04:16:39.573Z,1.00
2018-02-16T04:18:40.622Z,0.90
2018-02-16T04:20:41.659Z,1.00
2018-02-16T04:22:42.625Z,1.00
2018-02-16T04:24:43.651Z,1.00
2018-02-16T04:26:44.673Z,1.10
2018-02-16T04:28:46.441Z,1.10
2018-02-16T04:31:02.392Z,1.10
2018-02-16T04:33:03.379Z,1.10
2018-02-16T04:40:00.997Z,1.00
2018-02-16T04:42:02.767Z,0.80
2018-02-16T04:46:32.179Z,0.90
2018-02-16T04:48:33.167Z,1.00
2018-02-16T04:50:35.015Z,1.10
2018-02-16T04:52:36.014Z,1.10
2018-02-16T04:54:37.025Z,1.20
2018-02-16T04:56:38.798Z,1.10
2018-02-16T04:58:39.927Z,1.10
2018-02-16T05:00:40.951Z,1.20
2018-02-16T05:02:41.900Z,1.10
2018-02-16T05:04:52.637Z,1.10
2018-02-16T05:06:53.734Z,1.00
2018-02-16T05:08:54.952Z,1.20
2018-02-16T05:10:55.943Z,1.30
2018-02-16T05:12:57.704Z,1.50
2018-02-16T05:14:58.776Z,1.50
2018-02-16T05:17:00.557Z,1.50
2018-02-16T05:19:01.623Z,1.50
2018-02-16T05:21:02.703Z,1.50
2018-02-16T05:23:03.744Z,1.60
2018-02-16T05:25:04.814Z,1.60
2018-02-16T05:29:34.641Z,1.60
2018-02-16T05:35:01.732Z,1.60
2018-02-16T05:37:02.738Z,1.60
2018-02-16T05:39:03.731Z,1.60
2018-02-16T05:41:04.675Z,1.60
2018-02-16T05:43:26.754Z,1.50
2018-02-16T05:45:27.812Z,1.60
2018-02-16T05:47:28.801Z,1.50
2018-02-16T05:49:30.037Z,1.50
2018-02-16T05:51:34.496Z,1.50
2018-02-16T05:53:35.464Z,1.40
2018-02-16T05:58:25.760Z,1.40
2018-02-16T06:00:26.719Z,1.40
2018-02-16T06:02:27.766Z,1.40
2018-02-16T06:04:28.715Z,1.40
2018-02-16T06:08:57.835Z,1.30
2018-02-16T06:11:05.446Z,1.20
2018-02-16T06:13:06.420Z,1.30
2018-02-16T06:17:42.112Z,1.10
2018-02-16T06:19:43.090Z,1.10
2018-02-16T06:26:41.705Z,1.10
2018-02-16T06:28:42.687Z,1.10
2018-02-16T06:35:39.751Z,1.10
2018-02-16T06:37:40.809Z,1.10
2018-02-16T06:39:41.755Z,1.20
2018-02-16T06:41:43.455Z,1.20
2018-02-16T06:43:44.416Z,1.20
2018-02-16T06:45:45.365Z,1.20
2018-02-16T06:47:46.390Z,1.10
2018-02-16T06:49:47.351Z,1.10
2018-02-16T06:51:48.307Z,1.20
2018-02-16T06:53:49.265Z,1.20
2018-02-16T06:55:50.327Z,1.20
2018-02-16T06:58:06.251Z,1.20
2018-02-16T07:02:35.426Z,1.20
2018-02-16T07:04:36.382Z,1.40
2018-02-16T07:06:37.394Z,1.40
2018-02-16T07:08:38.348Z,1.40
2018-02-16T07:11:05.450Z,1.50
2018-02-16T07:13:06.399Z,1.50
2018-02-16T07:15:07.404Z,1.60
2018-02-16T07:17:08.412Z,1.60
2018-02-16T07:19:10.129Z,1.90
2018-02-16T07:21:11.080Z,1.90
2018-02-16T07:23:12.048Z,2.10
2018-02-16T07:25:28.207Z,2.30
2018-02-16T07:27:29.248Z,2.50
2018-02-16T07:29:38.420Z,2.70
2018-02-16T07:31:39.391Z,2.90
2018-02-16T07:33:57.968Z,3.10
2018-02-16T07:38:27.050Z,3.50
2018-02-16T07:40:28.015Z,3.60
2018-02-16T07:42:29.042Z,3.80
2018-02-16T07:44:30.064Z,3.90
2018-02-16T07:46:31.021Z,4.00
2018-02-16T07:48:31.946Z,4.30
2018-02-16T07:50:57.819Z,4.40
2018-02-16T07:52:58.860Z,4.50
2018-02-16T07:54:59.915Z,4.70
2018-02-16T07:57:00.899Z,4.80
2018-02-16T07:59:01.860Z,5.00
2018-02-16T08:06:07.983Z,5.50
2018-02-16T08:08:29.987Z,5.60
2018-02-16T08:10:31.505Z,5.80
2018-02-16T08:12:32.513Z,6.10
2018-02-16T08:14:35.713Z,6.30
2018-02-16T08:16:36.757Z,6.30
2018-02-16T08:18:37.703Z,6.20
2018-02-16T08:20:38.660Z,6.40
2018-02-16T08:22:59.900Z,6.60
2018-02-16T08:25:00.868Z,6.80
2018-02-16T08:27:01.828Z,6.70
2018-02-16T08:29:02.855Z,6.90
2018-02-16T08:31:30.022Z,7.10
2018-02-16T08:33:31.029Z,7.40
2018-02-16T08:43:06.395Z,5.50
2018-02-16T08:45:07.419Z,5.20
2018-02-16T08:47:08.399Z,4.90
2018-02-16T08:49:09.443Z,4.80
2018-02-16T08:51:31.322Z,4.60
2018-02-16T08:53:56.163Z,4.50
2018-02-16T08:58:25.105Z,4.30
2018-02-16T09:00:26.378Z,4.20
2018-02-16T09:07:31.968Z,4.50
2018-02-16T09:14:38.374Z,4.90
2018-02-16T09:19:14.834Z,5.20
2018-02-16T09:23:50.988Z,5.80
2018-02-16T09:25:55.965Z,6.70
2018-02-16T09:30:10.510Z,8.00
2018-02-16T09:32:12.175Z,8.30
2018-02-16T09:34:13.147Z,8.30
2018-02-16T09:36:14.915Z,8.30
2018-02-16T09:38:15.929Z,9.00
2018-02-16T09:40:16.968Z,8.90
2018-02-16T09:42:18.683Z,9.30
2018-02-16T09:44:33.155Z,9.20
2018-02-16T09:46:34.126Z,9.40
2018-02-16T09:48:35.889Z,9.70
2018-02-16T09:50:36.881Z,9.70
2018-02-16T09:52:37.851Z,9.60
2018-02-16T09:54:38.823Z,9.80
2018-02-16T09:57:02.056Z,10.00
2018-02-16T10:01:30.636Z,9.90
2018-02-16T10:03:31.650Z,9.80
2018-02-16T10:05:32.653Z,9.90
2018-02-16T10:07:53.365Z,9.00
2018-02-16T10:12:35.064Z,8.30
2018-02-16T10:14:36.778Z,8.10
2018-02-16T10:19:02.757Z,8.40
2018-02-16T10:21:03.738Z,8.80
2018-02-16T10:23:05.512Z,8.90
2018-02-16T10:25:06.504Z,9.40
2018-02-16T10:27:07.479Z,9.70
2018-02-16T10:29:08.485Z,10.00
2018-02-16T10:31:09.462Z,9.80
2018-02-16T10:33:10.431Z,9.80
2018-02-16T10:35:12.131Z,10.50
2018-02-16T10:37:37.208Z,10.50
2018-02-16T10:39:38.927Z,10.40
2018-02-16T10:41:39.883Z,10.40
2018-02-16T10:43:40.991Z,10.50
2018-02-16T10:45:41.946Z,10.90
2018-02-16T10:47:42.897Z,11.40
2018-02-16T10:49:52.653Z,10.60
2018-02-16T10:51:53.571Z,11.10
2018-02-16T10:53:54.518Z,11.00
2018-02-16T10:55:55.447Z,11.70
2018-02-16T10:57:57.126Z,11.70
2018-02-16T10:59:58.049Z,11.70
2018-02-16T11:02:12.647Z,10.40
2018-02-16T11:04:19.654Z,10.30
2018-02-16T11:06:26.709Z,11.70
2018-02-16T11:08:33.674Z,11.30
2018-02-16T11:13:04.491Z,11.90
2018-02-16T11:15:05.442Z,12.60
2018-02-16T11:17:06.402Z,11.40
2018-02-16T11:19:15.422Z,10.20
2018-02-16T11:21:16.382Z,9.60
2018-02-16T11:23:17.319Z,8.80
2018-02-16T11:25:19.770Z,9.50
2018-02-16T11:27:20.999Z,9.50
2018-02-16T11:29:21.960Z,10.40
2018-02-16T11:31:22.893Z,11.10
2018-02-16T11:33:24.552Z,10.70
2018-02-16T11:35:36.339Z,10.50
2018-02-16T11:37:37.278Z,10.60
2018-02-16T11:39:46.917Z,10.70
2018-02-16T11:41:47.885Z,9.80
2018-02-16T11:43:48.853Z,9.00
2018-02-16T11:48:17.962Z,8.40
2018-02-16T11:50:27.116Z,8.10
2018-02-16T11:52:28.081Z,7.50
2018-02-16T11:54:29.019Z,7.70
2018-02-16T11:59:08.462Z,8.40
2018-02-16T12:01:30.599Z,9.10
2018-02-16T12:04:00.031Z,9.90
2018-02-16T12:06:00.989Z,10.90
2018-02-16T12:08:01.939Z,11.40
2018-02-16T12:10:02.884Z,12.00
2018-02-16T12:12:03.822Z,11.70
2018-02-16T12:14:05.512Z,12.20
2018-02-16T12:16:06.438Z,12.10
2018-02-16T12:18:29.336Z,12.50
2018-02-16T12:20:30.421Z,12.70
2018-02-16T12:22:31.351Z,12.70
2018-02-16T12:24:32.274Z,12.70
2018-02-16T12:26:33.478Z,13.30
2018-02-16T12:28:34.431Z,12.90
2018-02-16T12:30:35.476Z,12.90
2018-02-16T12:37:33.456Z,13.10
2018-02-16T12:42:11.913Z,10.80
2018-02-16T12:44:12.853Z,10.20
2018-02-16T12:46:36.280Z,9.70
2018-02-16T12:48:37.978Z,9.60
2018-02-16T12:50:38.924Z,9.50
2018-02-16T12:52:39.868Z,9.20
2018-02-16T12:54:40.913Z,8.90
2018-02-16T12:56:41.878Z,8.50
2018-02-16T12:58:42.839Z,9.60
2018-02-16T13:00:44.122Z,10.10
2018-02-16T13:02:45.838Z,11.20
2018-02-16T13:04:46.803Z,11.20
2018-02-16T13:06:47.777Z,10.40
2018-02-16T13:08:49.489Z,9.70
2018-02-16T13:10:50.709Z,9.70
2018-02-16T13:12:51.664Z,10.10
2018-02-16T13:14:52.616Z,10.80
2018-02-16T13:17:06.841Z,11.00
2018-02-16T13:21:36.504Z,10.80
2018-02-16T13:26:08.530Z,9.30
2018-02-16T13:30:36.928Z,8.70
2018-02-16T13:32:37.976Z,8.40
2018-02-16T13:34:38.927Z,8.30
2018-02-16T13:36:49.603Z,8.10
2018-02-16T13:38:50.556Z,7.90
2018-02-16T13:45:49.684Z,9.60
2018-02-16T13:50:18.374Z,11.00
2018-02-16T13:52:19.325Z,10.00
2018-02-16T13:54:20.273Z,10.10
2018-02-16T13:56:21.232Z,9.40
2018-02-16T14:00:59.946Z,10.50
2018-02-16T14:03:00.878Z,11.20
2018-02-16T14:05:19.658Z,11.30
2018-02-16T14:09:51.206Z,11.80
2018-02-16T14:11:52.155Z,11.80
2018-02-16T14:13:53.099Z,11.50
2018-02-16T14:16:04.038Z,11.00
2018-02-16T14:18:04.984Z,11.50
2018-02-16T14:20:14.723Z,11.40
2018-02-16T14:22:15.668Z,10.80
2018-02-16T14:24:16.635Z,10.20
2018-02-16T14:26:17.577Z,10.60
2018-02-16T14:28:18.554Z,10.70
2018-02-16T14:32:48.405Z,10.30
2018-02-16T14:34:50.097Z,9.50
2018-02-16T14:36:51.235Z,9.40
2018-02-16T14:38:52.188Z,9.10
2018-02-16T14:40:53.160Z,8.50
2018-02-16T14:42:54.139Z,8.10
2018-02-16T14:44:55.358Z,8.00
2018-02-16T14:46:56.319Z,7.70
2018-02-16T14:54:02.401Z,7.30
2018-02-16T14:56:33.375Z,7.20
2018-02-16T14:58:34.600Z,7.30
2018-02-16T15:03:03.578Z,7.80
2018-02-16T15:05:04.676Z,7.70
2018-02-16T15:07:05.783Z,7.60
2018-02-16T15:09:06.875Z,7.40
2018-02-16T15:11:07.968Z,7.20
2018-02-16T15:13:09.109Z,7.10
2018-02-16T15:15:10.233Z,7.00
2018-02-16T15:17:11.352Z,6.90
2018-02-16T15:19:37.631Z,6.80
2018-02-16T15:24:06.514Z,7.00
2018-02-16T15:26:07.625Z,7.50
2018-02-16T15:30:45.952Z,7.40
2018-02-16T15:33:10.105Z,7.20
2018-02-16T15:35:11.051Z,7.00
2018-02-16T15:37:12.741Z,6.60
2018-02-16T15:39:13.751Z,6.60
2018-02-16T15:41:14.712Z,6.40
2018-02-16T15:43:37.728Z,6.30
2018-02-16T15:45:38.689Z,6.10
2018-02-16T15:47:39.657Z,6.00
2018-02-16T15:49:41.346Z,5.90
2018-02-16T15:51:42.314Z,5.90
2018-02-16T15:53:43.328Z,5.80
2018-02-16T15:58:12.313Z,5.70
2018-02-16T16:00:23.495Z,5.60
2018-02-16T16:02:24.459Z,5.60
2018-02-16T16:04:25.473Z,5.50
2018-02-16T16:06:26.411Z,5.40
2018-02-16T16:10:51.983Z,5.20
2018-02-16T16:13:08.671Z,5.10
2018-02-16T16:15:09.639Z,5.00
2018-02-16T16:17:10.583Z,5.00
2018-02-16T16:19:11.527Z,4.90
2018-02-16T16:21:12.568Z,4.90
2018-02-16T16:23:37.321Z,4.90
2018-02-16T16:25:38.291Z,4.80
2018-02-16T16:27:39.235Z,4.80
2018-02-16T16:32:17.034Z,4.80
2018-02-16T16:34:18.702Z,4.70
2018-02-16T16:36:20.387Z,4.60
2018-02-16T16:38:21.376Z,4.60
2018-02-16T16:40:22.312Z,4.60
2018-02-16T16:42:23.244Z,4.60
2018-02-16T16:44:48.675Z,4.60
2018-02-16T16:46:49.628Z,4.60
2018-02-16T16:48:50.609Z,4.60
2018-02-16T16:50:51.807Z,4.60
2018-02-16T16:52:52.803Z,4.60
2018-02-16T16:54:53.871Z,4.60
2018-02-16T16:56:55.571Z,4.60
2018-02-16T16:59:04.907Z,4.50
2018-02-16T17:01:19.273Z,4.60
2018-02-16T17:03:20.227Z,4.60
2018-02-16T17:05:21.196Z,4.60
2018-02-16T17:07:22.295Z,4.70
2018-02-16T17:09:48.220Z,4.60
2018-02-16T17:11:49.170Z,4.60
2018-02-16T17:13:50.091Z,4.60
2018-02-16T17:16:17.443Z,4.50
2018-02-16T17:18:18.764Z,4.50
2018-02-16T17:20:19.710Z,4.50
2018-02-16T17:27:16.986Z,4.30
2018-02-16T17:29:18.088Z,4.20
2018-02-16T17:31:19.107Z,4.20
2018-02-16T17:35:48.563Z,4.20
2018-02-16T17:37:49.530Z,4.10
2018-02-16T17:39:50.763Z,4.20
2018-02-16T17:44:42.119Z,4.20
2018-02-16T17:46:43.067Z,4.30
2018-02-16T17:48:44.005Z,4.20
2018-02-16T17:50:45.091Z,4.30
2018-02-16T17:52:47.082Z,4.30
2018-02-16T17:54:48.783Z,4.30
2018-02-16T17:56:50.152Z,4.30
2018-02-16T18:03:55.874Z,4.30
2018-02-16T18:08:24.935Z,4.20
2018-02-16T18:15:17.620Z,4.10
2018-02-16T18:17:18.562Z,4.10
2018-02-16T18:19:23.903Z,4.00
2018-02-16T18:23:53.149Z,3.90
2018-02-16T18:25:54.107Z,3.80
2018-02-16T18:30:23.178Z,3.70
2018-02-16T18:32:24.155Z,3.70
2018-02-16T18:36:52.828Z,3.60
2018-02-16T18:46:49.710Z,3.40
2018-02-16T18:48:50.715Z,3.30
2018-02-16T18:50:51.739Z,3.30
2018-02-16T18:52:52.747Z,3.30
2018-02-16T18:54:53.700Z,3.30
2018-02-16T18:56:54.667Z,3.20
2018-02-16T18:58:55.642Z,3.10
2018-02-16T19:01:21.115Z,3.00
2018-02-16T19:03:22.083Z,3.10
2018-02-16T19:05:23.048Z,3.00
2018-02-16T19:09:51.642Z,2.90
2018-02-16T19:11:52.831Z,2.90
2018-02-16T19:13:53.794Z,2.90
2018-02-16T19:15:55.503Z,2.80
2018-02-16T19:17:56.491Z,2.80
2018-02-16T19:22:50.792Z,2.80
2018-02-16T19:28:24.966Z,2.70
2018-02-16T19:30:50.985Z,2.70
2018-02-16T19:32:52.749Z,2.60
2018-02-16T19:34:53.916Z,2.60
2018-02-16T19:36:54.835Z,2.50
2018-02-16T19:41:27.756Z,2.40
2018-02-16T19:43:28.889Z,2.40
2018-02-16T19:45:56.945Z,2.40
2018-02-16T19:47:58.127Z,2.40
2018-02-16T19:49:59.701Z,2.40
2018-02-16T19:52:00.751Z,2.30
2018-02-16T19:54:26.804Z,2.30
2018-02-16T19:59:08.315Z,2.30
2018-02-16T20:01:09.319Z,2.20
2018-02-16T20:03:10.272Z,2.20
2018-02-16T20:07:56.030Z,2.10
2018-02-16T20:10:25.724Z,2.10
2018-02-16T20:12:26.996Z,2.10
2018-02-16T20:14:27.995Z,2.00
2018-02-16T20:16:29.679Z,2.00
2018-02-16T20:18:30.810Z,2.00
2018-02-16T20:20:56.796Z,2.00
2018-02-16T20:22:57.759Z,2.00
2018-02-16T21:54:40.858Z,1.80
2018-02-16T21:59:18.317Z,1.20
2018-02-16T22:01:45.724Z,1.20
2018-02-16T22:06:14.731Z,1.10
2018-02-16T22:08:15.724Z,1.10
2018-02-16T22:10:17.474Z,1.00
2018-02-16T22:12:19.226Z,1.00
2018-02-16T22:16:48.123Z,1.00
2018-02-16T22:23:45.334Z,1.00
2018-02-16T22:25:46.255Z,1.00
2018-02-16T22:27:47.183Z,1.00
2018-02-16T22:29:57.126Z,1.00
2018-02-16T22:32:08.188Z,0.90
2018-02-16T22:34:09.155Z,1.00
2018-02-16T22:36:38.027Z,0.90
2018-02-16T22:41:15.375Z,0.90
2018-02-16T22:43:16.331Z,0.90
2018-02-16T22:45:18.097Z,0.70
2018-02-16T22:47:19.851Z,0.60
2018-02-16T22:49:21.592Z,0.70
2018-02-16T22:51:22.610Z,0.70
2018-02-16T22:53:23.582Z,0.60
2018-02-16T22:55:24.526Z,0.70
2018-02-16T22:57:25.458Z,0.70
2018-02-16T22:59:26.415Z,0.70
2018-02-16T23:01:27.441Z,0.70
2018-02-16T23:03:28.399Z,0.60
2018-02-16T23:05:40.335Z,0.70
2018-02-16T23:07:41.327Z,0.60
2018-02-16T23:09:42.264Z,0.60
2018-02-16T23:11:43.351Z,0.60
2018-02-16T23:13:44.359Z,0.50
2018-02-16T23:16:07.278Z,0.50
2018-02-16T23:18:08.362Z,0.50
2018-02-16T23:20:09.380Z,0.40
2018-02-16T23:22:11.084Z,0.40
2018-02-16T23:24:12.042Z,0.40
2018-02-16T23:26:13.050Z,0.40
2018-02-16T23:28:13.992Z,0.40
2018-02-16T23:30:37.807Z,0.40
2018-02-16T23:32:38.771Z,0.40
2018-02-16T23:34:39.847Z,0.40
2018-02-16T23:36:40.851Z,0.40
2018-02-16T23:38:41.803Z,0.40
2018-02-16T23:40:42.733Z,0.30
2018-02-16T23:42:43.763Z,0.30
2018-02-16T23:47:12.433Z,0.30
2018-02-16T23:52:07.229Z,0.30
2018-02-16T23:56:35.064Z,0.30
2018-02-16T23:58:36.815Z,0.20
